sensor_id;sensor_type;location;lat;lon;timestamp;temperature;humidity
30648;DHT22;17683;53.360;9.736;2023-08-01T00:00:44;16.40;99.90
30648;DHT22;17683;53.360;9.736;2023-08-01T00:03:10;16.40;99.90
30648;DHT22;17683;53.360;9.736;2023-08-01T00:05:36;16.40;99.90
30648;DHT22;17683;53.360;9.736;2023-08-01T00:08:03;16.40;99.90
30648;DHT22;17683;53.360;9.736;2023-08-01T00:10:28;16.40;99.90
30648;DHT22;17683;53.360;9.736;2023-08-01T00:12:54;16.40;99.90
30648;DHT22;17683;53.360;9.736;2023-08-01T00:15:20;16.40;99.90
30648;DHT22;17683;53.360;9.736;2023-08-01T00:17:45;16.40;99.90
30648;DHT22;17683;53.360;9.736;2023-08-01T00:20:11;16.30;99.90
30648;DHT22;17683;53.360;9.736;2023-08-01T00:22:37;16.40;99.90
30648;DHT22;17683;53.360;9.736;2023-08-01T00:25:03;16.40;99.90
30648;DHT22;17683;53.360;9.736;2023-08-01T00:27:29;16.40;99.90
30648;DHT22;17683;53.360;9.736;2023-08-01T00:29:54;16.40;99.90
30648;DHT22;17683;53.360;9.736;2023-08-01T00:32:20;16.30;99.90
30648;DHT22;17683;53.360;9.736;2023-08-01T00:34:46;16.30;99.90
30648;DHT22;17683;53.360;9.736;2023-08-01T00:37:12;16.40;99.90
30648;DHT22;17683;53.360;9.736;2023-08-01T00:39:38;16.40;99.90
30648;DHT22;17683;53.360;9.736;2023-08-01T00:42:04;16.40;99.90
30648;DHT22;17683;53.360;9.736;2023-08-01T00:44:30;16.40;99.90
30648;DHT22;17683;53.360;9.736;2023-08-01T00:46:55;16.40;99.90
30648;DHT22;17683;53.360;9.736;2023-08-01T00:49:21;16.40;99.90
30648;DHT22;17683;53.360;9.736;2023-08-01T00:51:47;16.40;99.90
30648;DHT22;17683;53.360;9.736;2023-08-01T00:54:14;16.40;99.90
30648;DHT22;17683;53.360;9.736;2023-08-01T00:56:40;16.40;99.90
30648;DHT22;17683;53.360;9.736;2023-08-01T00:59:05;16.40;99.90
30648;DHT22;17683;53.360;9.736;2023-08-01T01:01:31;16.50;99.90
30648;DHT22;17683;53.360;9.736;2023-08-01T01:03:57;16.50;99.90
30648;DHT22;17683;53.360;9.736;2023-08-01T01:06:47;16.40;99.90
30648;DHT22;17683;53.360;9.736;2023-08-01T01:09:18;16.40;99.90
30648;DHT22;17683;53.360;9.736;2023-08-01T01:11:45;16.50;99.90
30648;DHT22;17683;53.360;9.736;2023-08-01T01:14:11;16.50;99.90
30648;DHT22;17683;53.360;9.736;2023-08-01T01:16:37;16.50;99.90
30648;DHT22;17683;53.360;9.736;2023-08-01T01:19:07;16.40;99.90
30648;DHT22;17683;53.360;9.736;2023-08-01T01:24:43;16.50;99.90
30648;DHT22;17683;53.360;9.736;2023-08-01T01:27:10;16.50;99.90
30648;DHT22;17683;53.360;9.736;2023-08-01T01:29:36;16.50;99.90
30648;DHT22;17683;53.360;9.736;2023-08-01T01:32:03;16.50;99.90
30648;DHT22;17683;53.360;9.736;2023-08-01T01:34:30;16.50;99.90
30648;DHT22;17683;53.360;9.736;2023-08-01T01:36:55;16.50;99.90
30648;DHT22;17683;53.360;9.736;2023-08-01T01:39:21;16.50;99.90
30648;DHT22;17683;53.360;9.736;2023-08-01T01:41:47;16.50;99.90
30648;DHT22;17683;53.360;9.736;2023-08-01T01:44:12;16.50;99.90
30648;DHT22;17683;53.360;9.736;2023-08-01T01:46:38;16.50;99.90
30648;DHT22;17683;53.360;9.736;2023-08-01T01:49:04;16.50;99.90
30648;DHT22;17683;53.360;9.736;2023-08-01T01:51:30;16.50;99.90
30648;DHT22;17683;53.360;9.736;2023-08-01T01:53:56;16.60;99.90
30648;DHT22;17683;53.360;9.736;2023-08-01T01:56:22;16.60;99.90
30648;DHT22;17683;53.360;9.736;2023-08-01T01:58:47;16.60;99.90
30648;DHT22;17683;53.360;9.736;2023-08-01T02:01:13;16.60;99.90
30648;DHT22;17683;53.360;9.736;2023-08-01T02:03:39;16.60;99.90
30648;DHT22;17683;53.360;9.736;2023-08-01T02:06:04;16.60;99.90
30648;DHT22;17683;53.360;9.736;2023-08-01T02:08:30;16.60;99.90
30648;DHT22;17683;53.360;9.736;2023-08-01T02:10:56;16.60;99.90
30648;DHT22;17683;53.360;9.736;2023-08-01T02:13:27;16.60;99.90
30648;DHT22;17683;53.360;9.736;2023-08-01T02:15:53;16.60;99.90
30648;DHT22;17683;53.360;9.736;2023-08-01T02:18:19;16.60;99.90
30648;DHT22;17683;53.360;9.736;2023-08-01T02:20:45;16.70;99.90
30648;DHT22;17683;53.360;9.736;2023-08-01T02:23:10;16.60;99.90
30648;DHT22;17683;53.360;9.736;2023-08-01T02:25:40;16.60;99.90
30648;DHT22;17683;53.360;9.736;2023-08-01T02:28:06;16.60;99.90
30648;DHT22;17683;53.360;9.736;2023-08-01T02:30:33;16.60;99.90
30648;DHT22;17683;53.360;9.736;2023-08-01T02:32:59;16.60;99.90
30648;DHT22;17683;53.360;9.736;2023-08-01T02:35:25;16.60;99.90
30648;DHT22;17683;53.360;9.736;2023-08-01T02:37:50;16.60;99.90
30648;DHT22;17683;53.360;9.736;2023-08-01T02:40:16;16.60;99.90
30648;DHT22;17683;53.360;9.736;2023-08-01T02:42:42;16.60;99.90
30648;DHT22;17683;53.360;9.736;2023-08-01T02:45:08;16.60;99.90
30648;DHT22;17683;53.360;9.736;2023-08-01T02:47:33;16.60;99.90
30648;DHT22;17683;53.360;9.736;2023-08-01T02:49:59;16.60;99.90
30648;DHT22;17683;53.360;9.736;2023-08-01T02:52:25;16.60;99.90
30648;DHT22;17683;53.360;9.736;2023-08-01T02:54:50;16.60;99.90
30648;DHT22;17683;53.360;9.736;2023-08-01T02:57:16;16.60;99.90
30648;DHT22;17683;53.360;9.736;2023-08-01T02:59:42;16.60;99.90
30648;DHT22;17683;53.360;9.736;2023-08-01T03:02:07;16.60;99.90
30648;DHT22;17683;53.360;9.736;2023-08-01T03:04:33;16.60;99.90
30648;DHT22;17683;53.360;9.736;2023-08-01T03:06:58;16.60;99.90
30648;DHT22;17683;53.360;9.736;2023-08-01T03:09:24;16.60;99.90
30648;DHT22;17683;53.360;9.736;2023-08-01T03:11:50;16.60;99.90
30648;DHT22;17683;53.360;9.736;2023-08-01T03:14:15;16.60;99.90
30648;DHT22;17683;53.360;9.736;2023-08-01T03:16:42;16.60;99.90
30648;DHT22;17683;53.360;9.736;2023-08-01T03:19:07;16.50;99.90
30648;DHT22;17683;53.360;9.736;2023-08-01T03:21:34;16.60;99.90
30648;DHT22;17683;53.360;9.736;2023-08-01T03:24:03;16.60;99.90
30648;DHT22;17683;53.360;9.736;2023-08-01T03:26:29;16.60;99.90
30648;DHT22;17683;53.360;9.736;2023-08-01T03:28:55;16.60;99.90
30648;DHT22;17683;53.360;9.736;2023-08-01T03:31:24;16.60;99.90
30648;DHT22;17683;53.360;9.736;2023-08-01T03:33:50;16.60;99.90
30648;DHT22;17683;53.360;9.736;2023-08-01T03:36:15;16.60;99.90
30648;DHT22;17683;53.360;9.736;2023-08-01T03:38:41;16.60;99.90
30648;DHT22;17683;53.360;9.736;2023-08-01T03:41:07;16.60;99.90
30648;DHT22;17683;53.360;9.736;2023-08-01T03:43:32;16.60;99.90
30648;DHT22;17683;53.360;9.736;2023-08-01T03:45:58;16.60;99.90
30648;DHT22;17683;53.360;9.736;2023-08-01T03:48:24;16.60;99.90
30648;DHT22;17683;53.360;9.736;2023-08-01T03:50:49;16.60;99.90
30648;DHT22;17683;53.360;9.736;2023-08-01T03:53:15;16.60;99.90
30648;DHT22;17683;53.360;9.736;2023-08-01T03:55:40;16.60;99.90
30648;DHT22;17683;53.360;9.736;2023-08-01T03:58:08;16.60;99.90
30648;DHT22;17683;53.360;9.736;2023-08-01T04:00:33;16.60;99.90
30648;DHT22;17683;53.360;9.736;2023-08-01T04:03:00;16.60;99.90
30648;DHT22;17683;53.360;9.736;2023-08-01T04:05:27;16.60;99.90
30648;DHT22;17683;53.360;9.736;2023-08-01T04:07:53;16.60;99.90
30648;DHT22;17683;53.360;9.736;2023-08-01T04:10:21;16.60;99.90
30648;DHT22;17683;53.360;9.736;2023-08-01T04:12:46;16.60;99.90
30648;DHT22;17683;53.360;9.736;2023-08-01T04:15:12;16.60;99.90
30648;DHT22;17683;53.360;9.736;2023-08-01T04:17:38;16.60;99.90
30648;DHT22;17683;53.360;9.736;2023-08-01T04:20:04;16.60;99.90
30648;DHT22;17683;53.360;9.736;2023-08-01T04:22:30;16.60;99.90
30648;DHT22;17683;53.360;9.736;2023-08-01T04:24:56;16.60;99.90
30648;DHT22;17683;53.360;9.736;2023-08-01T04:27:21;16.60;99.90
30648;DHT22;17683;53.360;9.736;2023-08-01T04:29:48;16.60;99.90
30648;DHT22;17683;53.360;9.736;2023-08-01T04:32:14;16.60;99.90
30648;DHT22;17683;53.360;9.736;2023-08-01T04:34:41;16.50;99.90
30648;DHT22;17683;53.360;9.736;2023-08-01T04:37:07;16.60;99.90
30648;DHT22;17683;53.360;9.736;2023-08-01T04:39:32;16.50;99.90
30648;DHT22;17683;53.360;9.736;2023-08-01T04:41:58;16.50;99.90
30648;DHT22;17683;53.360;9.736;2023-08-01T04:44:24;16.50;99.90
30648;DHT22;17683;53.360;9.736;2023-08-01T04:46:50;16.50;99.90
30648;DHT22;17683;53.360;9.736;2023-08-01T04:49:15;16.50;99.90
30648;DHT22;17683;53.360;9.736;2023-08-01T04:51:41;16.50;99.90
30648;DHT22;17683;53.360;9.736;2023-08-01T04:54:07;16.50;99.90
30648;DHT22;17683;53.360;9.736;2023-08-01T04:56:32;16.50;99.90
30648;DHT22;17683;53.360;9.736;2023-08-01T04:58:58;16.50;99.90
30648;DHT22;17683;53.360;9.736;2023-08-01T05:01:24;16.50;99.90
30648;DHT22;17683;53.360;9.736;2023-08-01T05:03:49;16.50;99.90
30648;DHT22;17683;53.360;9.736;2023-08-01T05:06:15;16.50;99.90
30648;DHT22;17683;53.360;9.736;2023-08-01T05:08:40;16.50;99.90
30648;DHT22;17683;53.360;9.736;2023-08-01T05:11:06;16.50;99.90
30648;DHT22;17683;53.360;9.736;2023-08-01T05:13:32;16.40;99.90
30648;DHT22;17683;53.360;9.736;2023-08-01T05:15:58;16.40;99.90
30648;DHT22;17683;53.360;9.736;2023-08-01T05:18:23;16.40;99.90
30648;DHT22;17683;53.360;9.736;2023-08-01T05:20:49;16.40;99.90
30648;DHT22;17683;53.360;9.736;2023-08-01T05:23:15;16.40;99.90
30648;DHT22;17683;53.360;9.736;2023-08-01T05:25:40;16.30;99.90
30648;DHT22;17683;53.360;9.736;2023-08-01T05:28:06;16.30;99.90
30648;DHT22;17683;53.360;9.736;2023-08-01T05:30:32;16.30;99.90
30648;DHT22;17683;53.360;9.736;2023-08-01T05:32:57;16.30;99.90
30648;DHT22;17683;53.360;9.736;2023-08-01T05:35:23;16.20;99.90
30648;DHT22;17683;53.360;9.736;2023-08-01T05:37:49;16.20;99.90
30648;DHT22;17683;53.360;9.736;2023-08-01T05:40:14;16.20;99.90
30648;DHT22;17683;53.360;9.736;2023-08-01T05:42:40;16.20;99.90
30648;DHT22;17683;53.360;9.736;2023-08-01T05:45:06;16.20;99.90
30648;DHT22;17683;53.360;9.736;2023-08-01T05:47:32;16.20;99.90
30648;DHT22;17683;53.360;9.736;2023-08-01T05:49:58;16.30;99.90
30648;DHT22;17683;53.360;9.736;2023-08-01T05:52:23;16.30;99.90
30648;DHT22;17683;53.360;9.736;2023-08-01T05:54:49;16.30;99.90
30648;DHT22;17683;53.360;9.736;2023-08-01T05:57:15;16.30;99.90
30648;DHT22;17683;53.360;9.736;2023-08-01T05:59:41;16.40;99.90
30648;DHT22;17683;53.360;9.736;2023-08-01T06:02:07;16.40;99.90
30648;DHT22;17683;53.360;9.736;2023-08-01T06:04:32;16.40;99.90
30648;DHT22;17683;53.360;9.736;2023-08-01T06:06:58;16.40;99.90
30648;DHT22;17683;53.360;9.736;2023-08-01T06:09:24;16.40;99.90
30648;DHT22;17683;53.360;9.736;2023-08-01T06:11:51;16.40;99.90
30648;DHT22;17683;53.360;9.736;2023-08-01T06:14:17;16.40;99.90
30648;DHT22;17683;53.360;9.736;2023-08-01T06:16:42;16.30;99.90
30648;DHT22;17683;53.360;9.736;2023-08-01T06:19:08;16.30;99.90
30648;DHT22;17683;53.360;9.736;2023-08-01T06:21:34;16.40;99.90
30648;DHT22;17683;53.360;9.736;2023-08-01T06:24:00;16.30;99.90
30648;DHT22;17683;53.360;9.736;2023-08-01T06:26:25;16.30;99.90
30648;DHT22;17683;53.360;9.736;2023-08-01T06:28:51;16.30;99.90
30648;DHT22;17683;53.360;9.736;2023-08-01T06:31:21;16.20;99.90
30648;DHT22;17683;53.360;9.736;2023-08-01T06:33:47;16.30;99.90
30648;DHT22;17683;53.360;9.736;2023-08-01T06:36:13;16.20;99.90
30648;DHT22;17683;53.360;9.736;2023-08-01T06:38:39;16.20;99.90
30648;DHT22;17683;53.360;9.736;2023-08-01T06:41:05;16.20;99.90
30648;DHT22;17683;53.360;9.736;2023-08-01T06:43:30;16.30;99.90
30648;DHT22;17683;53.360;9.736;2023-08-01T06:45:56;16.30;99.90
30648;DHT22;17683;53.360;9.736;2023-08-01T06:48:22;16.30;99.90
30648;DHT22;17683;53.360;9.736;2023-08-01T06:50:47;16.30;99.90
30648;DHT22;17683;53.360;9.736;2023-08-01T06:53:13;16.50;99.90
30648;DHT22;17683;53.360;9.736;2023-08-01T06:55:39;16.50;99.90
30648;DHT22;17683;53.360;9.736;2023-08-01T06:58:05;16.50;99.90
30648;DHT22;17683;53.360;9.736;2023-08-01T07:00:31;16.60;99.90
30648;DHT22;17683;53.360;9.736;2023-08-01T07:02:57;16.70;99.90
30648;DHT22;17683;53.360;9.736;2023-08-01T07:05:23;16.70;99.90
30648;DHT22;17683;53.360;9.736;2023-08-01T07:07:49;16.80;99.90
30648;DHT22;17683;53.360;9.736;2023-08-01T07:10:14;16.80;99.90
30648;DHT22;17683;53.360;9.736;2023-08-01T07:12:40;16.90;99.90
30648;DHT22;17683;53.360;9.736;2023-08-01T07:15:06;16.90;99.90
30648;DHT22;17683;53.360;9.736;2023-08-01T07:17:33;17.00;99.90
30648;DHT22;17683;53.360;9.736;2023-08-01T07:19:58;17.00;99.90
30648;DHT22;17683;53.360;9.736;2023-08-01T07:22:24;17.00;99.90
30648;DHT22;17683;53.360;9.736;2023-08-01T07:24:55;17.00;99.90
30648;DHT22;17683;53.360;9.736;2023-08-01T07:27:21;17.10;99.90
30648;DHT22;17683;53.360;9.736;2023-08-01T07:29:47;17.10;99.90
30648;DHT22;17683;53.360;9.736;2023-08-01T07:32:14;17.10;99.90
30648;DHT22;17683;53.360;9.736;2023-08-01T07:34:40;17.30;99.90
30648;DHT22;17683;53.360;9.736;2023-08-01T07:37:06;17.50;99.90
30648;DHT22;17683;53.360;9.736;2023-08-01T07:39:31;17.90;99.90
30648;DHT22;17683;53.360;9.736;2023-08-01T07:41:59;18.00;99.90
30648;DHT22;17683;53.360;9.736;2023-08-01T07:44:25;18.10;99.90
30648;DHT22;17683;53.360;9.736;2023-08-01T07:46:50;18.20;99.90
30648;DHT22;17683;53.360;9.736;2023-08-01T07:49:16;18.40;99.90
30648;DHT22;17683;53.360;9.736;2023-08-01T07:51:42;18.50;99.90
30648;DHT22;17683;53.360;9.736;2023-08-01T07:54:08;18.60;99.90
30648;DHT22;17683;53.360;9.736;2023-08-01T07:56:33;18.60;99.90
30648;DHT22;17683;53.360;9.736;2023-08-01T07:58:59;18.70;99.90
30648;DHT22;17683;53.360;9.736;2023-08-01T08:01:24;18.50;99.90
30648;DHT22;17683;53.360;9.736;2023-08-01T08:03:50;18.50;99.90
30648;DHT22;17683;53.360;9.736;2023-08-01T08:06:16;18.50;99.90
30648;DHT22;17683;53.360;9.736;2023-08-01T08:08:41;18.40;99.90
30648;DHT22;17683;53.360;9.736;2023-08-01T08:11:07;18.30;99.90
30648;DHT22;17683;53.360;9.736;2023-08-01T08:13:33;18.20;99.90
30648;DHT22;17683;53.360;9.736;2023-08-01T08:15:59;18.20;99.90
30648;DHT22;17683;53.360;9.736;2023-08-01T08:18:25;18.20;99.90
30648;DHT22;17683;53.360;9.736;2023-08-01T08:20:50;18.20;99.90
30648;DHT22;17683;53.360;9.736;2023-08-01T08:23:19;18.10;99.90
30648;DHT22;17683;53.360;9.736;2023-08-01T08:25:45;18.20;99.90
30648;DHT22;17683;53.360;9.736;2023-08-01T08:28:12;18.20;99.90
30648;DHT22;17683;53.360;9.736;2023-08-01T08:30:39;18.20;99.90
30648;DHT22;17683;53.360;9.736;2023-08-01T08:33:04;18.40;99.90
30648;DHT22;17683;53.360;9.736;2023-08-01T08:35:35;18.50;99.90
30648;DHT22;17683;53.360;9.736;2023-08-01T08:38:02;18.60;99.90
30648;DHT22;17683;53.360;9.736;2023-08-01T08:40:33;18.70;99.90
30648;DHT22;17683;53.360;9.736;2023-08-01T08:43:01;18.70;99.90
30648;DHT22;17683;53.360;9.736;2023-08-01T08:45:30;18.70;99.90
30648;DHT22;17683;53.360;9.736;2023-08-01T08:48:01;18.70;99.90
30648;DHT22;17683;53.360;9.736;2023-08-01T08:50:29;18.60;99.90
30648;DHT22;17683;53.360;9.736;2023-08-01T08:52:56;18.40;99.90
30648;DHT22;17683;53.360;9.736;2023-08-01T08:55:23;18.40;99.90
30648;DHT22;17683;53.360;9.736;2023-08-01T08:57:52;18.30;99.90
30648;DHT22;17683;53.360;9.736;2023-08-01T09:00:18;18.10;99.90
30648;DHT22;17683;53.360;9.736;2023-08-01T09:02:45;18.10;99.90
30648;DHT22;17683;53.360;9.736;2023-08-01T09:05:11;18.00;99.90
30648;DHT22;17683;53.360;9.736;2023-08-01T09:07:41;17.90;99.90
30648;DHT22;17683;53.360;9.736;2023-08-01T09:10:07;17.90;99.90
30648;DHT22;17683;53.360;9.736;2023-08-01T09:12:36;17.90;99.90
30648;DHT22;17683;53.360;9.736;2023-08-01T09:15:02;18.00;99.90
30648;DHT22;17683;53.360;9.736;2023-08-01T09:17:28;18.10;99.90
30648;DHT22;17683;53.360;9.736;2023-08-01T09:20:06;18.30;99.90
30648;DHT22;17683;53.360;9.736;2023-08-01T09:22:45;18.50;99.90
30648;DHT22;17683;53.360;9.736;2023-08-01T09:25:12;18.80;99.90
30648;DHT22;17683;53.360;9.736;2023-08-01T09:27:38;19.00;99.90
30648;DHT22;17683;53.360;9.736;2023-08-01T09:30:12;19.20;99.90
30648;DHT22;17683;53.360;9.736;2023-08-01T09:32:55;19.30;99.90
30648;DHT22;17683;53.360;9.736;2023-08-01T09:35:21;19.20;99.90
30648;DHT22;17683;53.360;9.736;2023-08-01T09:37:48;19.30;99.90
30648;DHT22;17683;53.360;9.736;2023-08-01T09:40:14;19.50;99.90
30648;DHT22;17683;53.360;9.736;2023-08-01T09:42:41;19.80;99.90
30648;DHT22;17683;53.360;9.736;2023-08-01T09:45:17;19.90;99.90
30648;DHT22;17683;53.360;9.736;2023-08-01T09:47:44;19.90;99.90
30648;DHT22;17683;53.360;9.736;2023-08-01T09:50:11;19.90;99.90
30648;DHT22;17683;53.360;9.736;2023-08-01T09:52:39;20.00;99.90
30648;DHT22;17683;53.360;9.736;2023-08-01T09:55:05;20.00;99.90
30648;DHT22;17683;53.360;9.736;2023-08-01T09:57:31;20.00;99.90
30648;DHT22;17683;53.360;9.736;2023-08-01T09:59:58;20.00;99.90
30648;DHT22;17683;53.360;9.736;2023-08-01T10:02:26;19.90;99.90
30648;DHT22;17683;53.360;9.736;2023-08-01T10:04:57;20.00;99.90
30648;DHT22;17683;53.360;9.736;2023-08-01T10:07:26;20.30;99.90
30648;DHT22;17683;53.360;9.736;2023-08-01T10:09:58;20.50;99.90
30648;DHT22;17683;53.360;9.736;2023-08-01T10:12:26;20.70;99.90
30648;DHT22;17683;53.360;9.736;2023-08-01T10:14:53;20.70;99.90
30648;DHT22;17683;53.360;9.736;2023-08-01T10:17:21;20.80;99.90
30648;DHT22;17683;53.360;9.736;2023-08-01T10:19:49;21.00;99.90
30648;DHT22;17683;53.360;9.736;2023-08-01T10:22:15;21.10;99.90
30648;DHT22;17683;53.360;9.736;2023-08-01T10:24:41;21.30;99.90
30648;DHT22;17683;53.360;9.736;2023-08-01T10:27:18;21.50;99.90
30648;DHT22;17683;53.360;9.736;2023-08-01T10:29:44;21.50;99.90
30648;DHT22;17683;53.360;9.736;2023-08-01T10:32:10;21.60;99.90
30648;DHT22;17683;53.360;9.736;2023-08-01T10:34:36;21.70;99.90
30648;DHT22;17683;53.360;9.736;2023-08-01T10:37:02;21.80;99.90
30648;DHT22;17683;53.360;9.736;2023-08-01T10:39:28;21.80;99.90
30648;DHT22;17683;53.360;9.736;2023-08-01T10:42:02;22.00;99.90
30648;DHT22;17683;53.360;9.736;2023-08-01T10:44:28;22.00;99.90
30648;DHT22;17683;53.360;9.736;2023-08-01T10:49:36;22.30;99.90
30648;DHT22;17683;53.360;9.736;2023-08-01T10:52:08;22.40;99.90
30648;DHT22;17683;53.360;9.736;2023-08-01T10:54:40;22.30;99.90
30648;DHT22;17683;53.360;9.736;2023-08-01T10:57:06;22.10;99.90
30648;DHT22;17683;53.360;9.736;2023-08-01T10:59:32;21.80;99.90
30648;DHT22;17683;53.360;9.736;2023-08-01T11:01:58;21.60;99.90
30648;DHT22;17683;53.360;9.736;2023-08-01T11:04:25;21.40;99.90
30648;DHT22;17683;53.360;9.736;2023-08-01T11:06:53;21.60;99.90
30648;DHT22;17683;53.360;9.736;2023-08-01T11:09:22;21.80;99.90
30648;DHT22;17683;53.360;9.736;2023-08-01T11:11:51;21.60;99.90
30648;DHT22;17683;53.360;9.736;2023-08-01T11:14:23;21.00;99.90
30648;DHT22;17683;53.360;9.736;2023-08-01T11:16:49;20.50;99.90
30648;DHT22;17683;53.360;9.736;2023-08-01T11:21:45;20.00;99.90
30648;DHT22;17683;53.360;9.736;2023-08-01T11:24:11;19.70;99.90
30648;DHT22;17683;53.360;9.736;2023-08-01T11:26:44;19.70;99.90
30648;DHT22;17683;53.360;9.736;2023-08-01T11:29:11;19.90;99.90
30648;DHT22;17683;53.360;9.736;2023-08-01T11:31:38;19.90;99.90
30648;DHT22;17683;53.360;9.736;2023-08-01T11:34:04;20.10;99.90
30648;DHT22;17683;53.360;9.736;2023-08-01T11:36:30;20.30;99.90
30648;DHT22;17683;53.360;9.736;2023-08-01T11:38:57;20.60;99.90
30648;DHT22;17683;53.360;9.736;2023-08-01T11:41:25;20.80;99.90
30648;DHT22;17683;53.360;9.736;2023-08-01T11:43:51;20.90;99.90
30648;DHT22;17683;53.360;9.736;2023-08-01T11:46:17;21.10;99.90
30648;DHT22;17683;53.360;9.736;2023-08-01T11:48:46;21.30;99.90
30648;DHT22;17683;53.360;9.736;2023-08-01T11:51:13;21.50;99.90
30648;DHT22;17683;53.360;9.736;2023-08-01T11:53:38;21.50;99.90
30648;DHT22;17683;53.360;9.736;2023-08-01T11:56:05;21.40;99.90
30648;DHT22;17683;53.360;9.736;2023-08-01T11:58:35;21.30;99.90
30648;DHT22;17683;53.360;9.736;2023-08-01T12:01:20;21.00;99.90
30648;DHT22;17683;53.360;9.736;2023-08-01T12:03:50;20.60;99.90
30648;DHT22;17683;53.360;9.736;2023-08-01T12:06:18;20.30;99.90
30648;DHT22;17683;53.360;9.736;2023-08-01T12:08:46;19.90;99.90
30648;DHT22;17683;53.360;9.736;2023-08-01T12:11:26;19.60;99.90
30648;DHT22;17683;53.360;9.736;2023-08-01T12:14:01;19.40;99.90
30648;DHT22;17683;53.360;9.736;2023-08-01T12:16:27;19.30;99.90
30648;DHT22;17683;53.360;9.736;2023-08-01T12:18:52;19.20;99.90
30648;DHT22;17683;53.360;9.736;2023-08-01T12:21:18;19.20;99.90
30648;DHT22;17683;53.360;9.736;2023-08-01T12:23:44;19.20;99.90
30648;DHT22;17683;53.360;9.736;2023-08-01T12:26:09;19.20;99.90
30648;DHT22;17683;53.360;9.736;2023-08-01T12:28:36;19.30;99.90
30648;DHT22;17683;53.360;9.736;2023-08-01T12:31:01;19.30;99.90
30648;DHT22;17683;53.360;9.736;2023-08-01T12:33:27;19.60;99.90
30648;DHT22;17683;53.360;9.736;2023-08-01T12:35:53;19.80;99.90
30648;DHT22;17683;53.360;9.736;2023-08-01T12:38:18;20.00;99.90
30648;DHT22;17683;53.360;9.736;2023-08-01T12:40:44;20.10;99.90
30648;DHT22;17683;53.360;9.736;2023-08-01T12:43:10;20.20;99.90
30648;DHT22;17683;53.360;9.736;2023-08-01T12:45:35;20.40;99.90
30648;DHT22;17683;53.360;9.736;2023-08-01T12:48:01;20.50;99.90
30648;DHT22;17683;53.360;9.736;2023-08-01T12:50:27;20.60;99.90
30648;DHT22;17683;53.360;9.736;2023-08-01T12:52:52;20.70;99.90
30648;DHT22;17683;53.360;9.736;2023-08-01T12:55:18;20.60;99.90
30648;DHT22;17683;53.360;9.736;2023-08-01T12:57:44;20.50;99.90
30648;DHT22;17683;53.360;9.736;2023-08-01T13:00:10;20.30;99.90
30648;DHT22;17683;53.360;9.736;2023-08-01T13:02:36;20.10;99.90
30648;DHT22;17683;53.360;9.736;2023-08-01T13:05:04;19.70;99.90
30648;DHT22;17683;53.360;9.736;2023-08-01T13:07:29;19.50;99.90
30648;DHT22;17683;53.360;9.736;2023-08-01T13:09:58;19.40;99.90
30648;DHT22;17683;53.360;9.736;2023-08-01T13:12:24;19.40;99.90
30648;DHT22;17683;53.360;9.736;2023-08-01T13:14:50;19.40;99.90
30648;DHT22;17683;53.360;9.736;2023-08-01T13:17:15;19.60;99.90
30648;DHT22;17683;53.360;9.736;2023-08-01T13:19:41;19.60;99.90
30648;DHT22;17683;53.360;9.736;2023-08-01T13:22:07;19.60;99.90
30648;DHT22;17683;53.360;9.736;2023-08-01T13:24:32;19.60;99.90
30648;DHT22;17683;53.360;9.736;2023-08-01T13:26:58;19.50;99.90
30648;DHT22;17683;53.360;9.736;2023-08-01T13:29:24;19.40;99.90
30648;DHT22;17683;53.360;9.736;2023-08-01T13:31:50;19.30;99.90
30648;DHT22;17683;53.360;9.736;2023-08-01T13:34:15;19.30;99.90
30648;DHT22;17683;53.360;9.736;2023-08-01T13:36:43;19.20;99.90
30648;DHT22;17683;53.360;9.736;2023-08-01T13:39:08;19.10;99.90
30648;DHT22;17683;53.360;9.736;2023-08-01T13:41:34;19.10;99.90
30648;DHT22;17683;53.360;9.736;2023-08-01T13:44:00;19.00;99.90
30648;DHT22;17683;53.360;9.736;2023-08-01T13:46:27;19.00;99.90
30648;DHT22;17683;53.360;9.736;2023-08-01T13:48:53;19.00;99.90
30648;DHT22;17683;53.360;9.736;2023-08-01T13:51:19;18.90;99.90
30648;DHT22;17683;53.360;9.736;2023-08-01T13:53:45;18.80;99.90
30648;DHT22;17683;53.360;9.736;2023-08-01T13:56:11;18.70;99.90
30648;DHT22;17683;53.360;9.736;2023-08-01T13:58:40;18.80;99.90
30648;DHT22;17683;53.360;9.736;2023-08-01T14:01:07;18.80;99.90
30648;DHT22;17683;53.360;9.736;2023-08-01T14:03:34;18.90;99.90
30648;DHT22;17683;53.360;9.736;2023-08-01T14:08:30;18.90;99.90
30648;DHT22;17683;53.360;9.736;2023-08-01T14:10:55;18.90;99.90
30648;DHT22;17683;53.360;9.736;2023-08-01T14:13:21;18.90;99.90
30648;DHT22;17683;53.360;9.736;2023-08-01T14:15:47;19.00;99.90
30648;DHT22;17683;53.360;9.736;2023-08-01T14:18:12;18.90;99.90
30648;DHT22;17683;53.360;9.736;2023-08-01T14:20:38;18.80;99.90
30648;DHT22;17683;53.360;9.736;2023-08-01T14:23:04;18.80;99.90
30648;DHT22;17683;53.360;9.736;2023-08-01T14:25:29;18.80;99.90
30648;DHT22;17683;53.360;9.736;2023-08-01T14:27:55;18.80;99.90
30648;DHT22;17683;53.360;9.736;2023-08-01T14:30:21;19.00;99.90
30648;DHT22;17683;53.360;9.736;2023-08-01T14:32:46;19.20;99.90
30648;DHT22;17683;53.360;9.736;2023-08-01T14:35:12;19.30;99.90
30648;DHT22;17683;53.360;9.736;2023-08-01T14:37:38;19.40;99.90
30648;DHT22;17683;53.360;9.736;2023-08-01T14:40:04;19.40;99.90
30648;DHT22;17683;53.360;9.736;2023-08-01T14:42:30;19.50;99.90
30648;DHT22;17683;53.360;9.736;2023-08-01T14:44:55;19.70;99.90
30648;DHT22;17683;53.360;9.736;2023-08-01T14:47:22;19.90;99.90
30648;DHT22;17683;53.360;9.736;2023-08-01T14:49:49;20.00;99.90
30648;DHT22;17683;53.360;9.736;2023-08-01T14:52:14;20.00;99.90
30648;DHT22;17683;53.360;9.736;2023-08-01T14:54:40;20.10;99.90
30648;DHT22;17683;53.360;9.736;2023-08-01T14:57:06;20.10;99.90
30648;DHT22;17683;53.360;9.736;2023-08-01T14:59:32;19.90;99.90
30648;DHT22;17683;53.360;9.736;2023-08-01T15:01:57;19.80;99.90
30648;DHT22;17683;53.360;9.736;2023-08-01T15:04:23;19.70;99.90
30648;DHT22;17683;53.360;9.736;2023-08-01T15:06:49;19.70;99.90
30648;DHT22;17683;53.360;9.736;2023-08-01T15:09:14;19.70;99.90
30648;DHT22;17683;53.360;9.736;2023-08-01T15:11:40;19.70;99.90
30648;DHT22;17683;53.360;9.736;2023-08-01T15:14:06;19.70;99.90
30648;DHT22;17683;53.360;9.736;2023-08-01T15:16:32;19.70;99.90
30648;DHT22;17683;53.360;9.736;2023-08-01T15:18:57;19.90;99.90
30648;DHT22;17683;53.360;9.736;2023-08-01T15:21:23;20.00;99.90
30648;DHT22;17683;53.360;9.736;2023-08-01T15:23:50;20.00;99.90
30648;DHT22;17683;53.360;9.736;2023-08-01T15:26:16;20.00;99.90
30648;DHT22;17683;53.360;9.736;2023-08-01T15:28:42;19.80;99.90
30648;DHT22;17683;53.360;9.736;2023-08-01T15:31:09;19.80;99.90
30648;DHT22;17683;53.360;9.736;2023-08-01T15:33:36;19.70;99.90
30648;DHT22;17683;53.360;9.736;2023-08-01T15:36:06;19.60;99.90